createdAt,value
2023-03-06T08:08:07.406Z,12.17
2023-03-06T08:10:34.939Z,9.57
2023-03-06T08:13:01.785Z,11.15
2023-03-06T08:15:28.819Z,13.43
2023-03-06T08:17:55.773Z,8.30
2023-03-06T08:20:22.537Z,9.70
2023-03-06T08:22:49.256Z,9.55
2023-03-06T08:25:16.222Z,9.00
2023-03-06T08:27:43.399Z,10.80
2023-03-06T08:30:10.645Z,10.88
2023-03-06T08:32:38.012Z,12.37
2023-03-06T08:35:05.682Z,11.02
2023-03-06T08:37:32.478Z,10.68
2023-03-06T08:39:59.559Z,11.40
2023-03-06T08:42:26.425Z,10.05
2023-03-06T08:44:53.166Z,10.63
2023-03-06T08:47:21.419Z,11.38
2023-03-06T08:49:48.408Z,14.73
2023-03-06T08:52:17.195Z,12.05
2023-03-06T08:54:43.943Z,11.52
2023-03-06T08:57:10.745Z,10.47
2023-03-06T08:59:37.721Z,11.38
2023-03-06T09:02:05.635Z,10.40
2023-03-06T09:04:33.121Z,11.45
2023-03-06T09:07:00.545Z,8.90
2023-03-06T09:09:27.331Z,12.17
2023-03-06T09:11:54.891Z,12.18
2023-03-06T09:14:21.591Z,11.38
2023-03-06T09:16:48.293Z,13.25
2023-03-06T09:19:15.110Z,13.88
2023-03-06T09:21:41.873Z,13.20
2023-03-06T09:24:08.831Z,13.77
2023-03-06T09:26:45.728Z,10.80
2023-03-06T09:29:16.220Z,11.40
2023-03-06T09:31:43.513Z,14.05
2023-03-06T09:34:10.282Z,13.43
2023-03-06T09:36:53.414Z,12.25
2023-03-06T09:39:24.051Z,12.85
2023-03-06T09:41:51.075Z,11.50
2023-03-06T09:44:38.629Z,9.25
2023-03-06T09:47:17.588Z,9.07
2023-03-06T09:49:55.948Z,12.40
2023-03-06T09:52:37.481Z,8.90
2023-03-06T09:55:13.181Z,10.68
2023-03-06T09:57:45.535Z,11.25
2023-03-06T10:00:14.914Z,10.70
2023-03-06T10:02:48.302Z,10.38
2023-03-06T10:05:22.027Z,10.32
2023-03-06T10:08:01.410Z,10.38
2023-03-06T10:10:36.060Z,13.82
2023-03-06T10:13:28.441Z,10.63
2023-03-06T10:16:04.035Z,15.15
2023-03-06T10:18:31.788Z,16.98
2023-03-06T10:21:19.294Z,11.15
2023-03-06T10:23:55.014Z,13.13
2023-03-06T10:26:27.995Z,10.77
2023-03-06T10:29:36.747Z,11.32
2023-03-06T10:32:12.983Z,10.82
2023-03-06T10:34:40.699Z,12.10
2023-03-06T10:37:22.352Z,12.02
2023-03-06T10:39:57.689Z,10.90
2023-03-06T10:42:24.917Z,11.07
2023-03-06T10:45:11.990Z,11.38
2023-03-06T10:47:40.249Z,11.23
2023-03-06T10:50:22.223Z,11.07
2023-03-06T10:53:05.574Z,11.87
2023-03-06T10:55:37.853Z,12.13
2023-03-06T10:58:19.465Z,9.60
2023-03-06T11:00:46.286Z,9.73
2023-03-06T11:03:23.807Z,8.93
2023-03-06T11:06:12.654Z,10.97
2023-03-06T11:08:41.035Z,11.43
2023-03-06T11:11:13.655Z,9.50
2023-03-06T11:13:42.999Z,11.13
2023-03-06T11:16:26.938Z,11.10
2023-03-06T11:19:01.272Z,10.80
2023-03-06T11:21:33.919Z,11.50
2023-03-06T11:24:12.441Z,10.77
2023-03-06T11:26:53.739Z,11.50
2023-03-06T11:29:34.901Z,13.15
2023-03-06T11:32:14.500Z,13.50
2023-03-06T11:35:06.414Z,13.90
2023-03-06T11:37:45.134Z,13.70
2023-03-06T11:40:11.945Z,12.77
2023-03-06T11:42:42.954Z,12.45
2023-03-06T11:45:23.070Z,15.47
2023-03-06T11:48:01.810Z,13.43
2023-03-06T11:50:28.465Z,13.80
2023-03-06T11:53:01.576Z,16.63
2023-03-06T11:55:37.266Z,13.38
2023-03-06T11:58:25.362Z,13.70
2023-03-06T12:01:00.890Z,14.50
2023-03-06T12:03:57.529Z,12.95
2023-03-06T12:06:34.060Z,12.15
2023-03-06T12:09:04.905Z,14.82
2023-03-06T12:11:40.635Z,13.07
2023-03-06T12:14:16.183Z,14.50
2023-03-06T12:17:07.690Z,15.30
2023-03-06T12:19:49.955Z,15.05
2023-03-06T12:22:32.184Z,17.60
2023-03-06T12:25:19.385Z,12.07
2023-03-06T12:27:48.891Z,14.82
2023-03-06T12:30:34.536Z,13.98
2023-03-06T12:33:10.360Z,17.98
2023-03-06T12:35:40.083Z,15.43
2023-03-06T12:38:30.040Z,14.73
2023-03-06T12:41:13.051Z,12.27
2023-03-06T12:44:00.978Z,14.77
2023-03-06T12:46:28.366Z,16.20
2023-03-06T12:48:57.862Z,13.43
2023-03-06T12:51:24.653Z,12.33
2023-03-06T12:53:51.615Z,14.98
2023-03-06T12:56:18.946Z,13.82
2023-03-06T12:58:49.674Z,13.00
2023-03-06T13:01:37.699Z,15.48
2023-03-06T13:04:05.096Z,14.77
2023-03-06T13:06:50.419Z,16.05
2023-03-06T13:09:22.644Z,16.40
2023-03-06T13:11:58.144Z,19.08
2023-03-06T13:14:45.125Z,15.70
2023-03-06T13:17:28.827Z,14.00
2023-03-06T13:20:35.595Z,15.82
2023-03-06T13:23:31.220Z,13.68
2023-03-06T13:26:02.116Z,14.82
2023-03-06T13:28:50.240Z,13.02
2023-03-06T13:31:54.870Z,14.63
2023-03-06T13:34:41.395Z,17.33
2023-03-06T13:37:17.007Z,12.65
2023-03-06T13:39:55.648Z,14.18
2023-03-06T13:42:56.601Z,17.02
2023-03-06T13:45:45.339Z,18.43
2023-03-06T13:48:47.821Z,15.73
2023-03-06T13:51:22.889Z,13.13
2023-03-06T13:54:04.216Z,14.70
2023-03-06T13:57:05.233Z,16.30
2023-03-06T13:59:42.641Z,13.70
2023-03-06T14:02:33.914Z,15.80
2023-03-06T14:05:02.560Z,17.05
2023-03-06T14:07:32.404Z,15.80
2023-03-06T14:10:09.744Z,15.73
2023-03-06T14:12:40.941Z,14.40
2023-03-06T14:15:41.535Z,12.85
2023-03-06T14:18:38.382Z,17.13
2023-03-06T14:21:08.919Z,15.13
2023-03-06T14:23:42.292Z,16.20
2023-03-06T14:26:15.182Z,15.63
2023-03-06T14:28:46.485Z,13.07
2023-03-06T14:31:18.920Z,17.60
2023-03-06T14:33:53.408Z,16.70
2023-03-06T14:36:23.493Z,14.82
2023-03-06T14:38:53.257Z,16.87
2023-03-06T14:41:28.912Z,12.07
2023-03-06T14:44:17.685Z,16.73
2023-03-06T14:46:49.088Z,17.23
2023-03-06T14:49:17.648Z,12.65
2023-03-06T14:51:47.861Z,11.53
2023-03-06T14:54:34.979Z,14.85
2023-03-06T14:57:06.030Z,13.32
2023-03-06T14:59:43.055Z,13.25
2023-03-06T15:02:12.693Z,16.10
2023-03-06T15:04:45.050Z,14.90
2023-03-06T15:07:15.705Z,13.90
2023-03-06T15:09:50.989Z,14.43
2023-03-06T15:12:20.762Z,16.85
2023-03-06T15:14:59.510Z,12.35
2023-03-06T15:17:38.179Z,19.23
2023-03-06T15:20:08.830Z,15.55
2023-03-06T15:22:40.689Z,15.63
2023-03-06T15:25:16.222Z,17.33
2023-03-06T15:27:49.135Z,15.02
2023-03-06T15:30:31.217Z,19.17
2023-03-06T15:33:19.478Z,14.65
2023-03-06T15:35:57.558Z,16.15
2023-03-06T15:38:30.272Z,14.27
2023-03-06T15:40:58.464Z,14.48
2023-03-06T15:43:25.303Z,14.90
2023-03-06T15:45:58.308Z,14.43
2023-03-06T15:48:25.074Z,17.92
2023-03-06T15:50:51.863Z,13.52
2023-03-06T15:53:20.321Z,15.00
2023-03-06T15:55:47.357Z,12.90
2023-03-06T15:58:17.204Z,17.15
2023-03-06T16:00:44.366Z,16.98
2023-03-06T16:03:11.809Z,15.88
2023-03-06T16:05:38.825Z,17.25
2023-03-06T16:08:06.414Z,16.37
2023-03-06T16:10:37.112Z,15.25
2023-03-06T16:13:21.099Z,14.15
2023-03-06T16:15:49.487Z,17.67
2023-03-06T16:18:16.858Z,15.55
2023-03-06T16:20:43.876Z,15.70
2023-03-06T16:23:10.716Z,15.77
2023-03-06T16:25:39.236Z,16.63
2023-03-06T16:28:08.667Z,15.43
2023-03-06T16:30:35.693Z,13.93
2023-03-06T16:33:03.492Z,16.20
2023-03-06T16:35:30.614Z,15.40
2023-03-06T16:37:57.488Z,16.17
2023-03-06T16:40:37.547Z,18.77
2023-03-06T16:43:05.121Z,13.95
2023-03-06T16:45:38.472Z,16.03
2023-03-06T16:48:06.042Z,16.98
2023-03-06T16:50:38.163Z,14.02
2023-03-06T16:53:05.865Z,16.80
2023-03-06T16:55:36.541Z,15.18
2023-03-06T16:58:03.618Z,15.30
2023-03-06T17:00:33.228Z,17.55
2023-03-06T17:03:01.388Z,16.67
2023-03-06T17:05:28.949Z,16.13
2023-03-06T17:07:56.312Z,17.15
2023-03-06T17:10:26.271Z,13.60
2023-03-06T17:12:54.021Z,17.77
2023-03-06T17:15:21.434Z,20.48
2023-03-06T17:17:48.694Z,16.88
2023-03-06T17:20:15.706Z,17.90
2023-03-06T17:22:42.494Z,14.00
2023-03-06T17:25:10.233Z,17.63
2023-03-06T17:27:37.719Z,16.98
2023-03-06T17:30:05.998Z,19.10
2023-03-06T17:32:32.902Z,15.55
2023-03-06T17:34:59.985Z,18.90
2023-03-06T17:37:26.889Z,17.90
2023-03-06T17:39:53.778Z,19.45
2023-03-06T17:42:20.631Z,18.00
2023-03-06T17:44:47.982Z,17.13
2023-03-06T17:47:14.794Z,17.23
2023-03-06T17:49:41.542Z,15.95
2023-03-06T17:52:08.302Z,13.95
2023-03-06T17:54:35.888Z,14.48
2023-03-06T17:57:04.482Z,15.63
2023-03-06T17:59:33.938Z,14.03
2023-03-06T18:02:01.081Z,14.27
2023-03-06T18:04:27.869Z,15.80
2023-03-06T18:06:54.642Z,16.92
2023-03-06T18:09:21.385Z,17.52
2023-03-06T18:11:48.038Z,16.57
2023-03-06T18:14:14.865Z,17.00
2023-03-06T18:16:41.710Z,14.98
2023-03-06T18:19:11.014Z,15.82
2023-03-06T18:21:39.114Z,16.50
2023-03-06T18:24:06.208Z,16.27
2023-03-06T18:26:32.935Z,17.02
2023-03-06T18:29:03.622Z,19.25
2023-03-06T18:31:34.574Z,17.83
2023-03-06T18:34:12.702Z,19.55
2023-03-06T18:36:40.519Z,18.63
2023-03-06T18:39:08.867Z,19.13
2023-03-06T18:41:36.351Z,18.75
2023-03-06T18:44:03.400Z,19.40
2023-03-06T18:46:35.212Z,25.20
2023-03-06T18:49:02.141Z,30.87
2023-03-06T18:51:28.901Z,26.38
2023-03-06T18:54:00.249Z,23.90
2023-03-06T18:56:27.250Z,23.20
2023-03-06T18:58:54.176Z,25.20
2023-03-06T19:01:22.356Z,20.47
2023-03-06T19:03:49.181Z,23.05
2023-03-06T19:06:17.062Z,24.08
2023-03-06T19:08:43.973Z,20.67
2023-03-06T19:11:15.402Z,18.25
2023-03-06T19:13:42.573Z,19.27
2023-03-06T19:16:31.407Z,20.17
2023-03-06T19:18:58.973Z,23.48
2023-03-06T19:21:26.836Z,19.77
2023-03-06T19:23:54.081Z,20.70
2023-03-06T19:26:20.988Z,20.07
2023-03-06T19:28:48.719Z,23.40
2023-03-06T19:31:21.410Z,23.13
2023-03-06T19:33:49.198Z,20.30
2023-03-06T19:36:17.236Z,24.20
2023-03-06T19:38:44.094Z,19.97
2023-03-06T19:41:13.681Z,21.08
2023-03-06T19:43:41.789Z,22.48
2023-03-06T19:46:15.004Z,20.98
2023-03-06T19:48:42.142Z,24.85
2023-03-06T19:51:09.380Z,21.37
2023-03-06T19:53:36.313Z,18.25
2023-03-06T19:56:07.334Z,17.48
2023-03-06T19:58:34.101Z,17.33
2023-03-06T20:01:08.874Z,17.73
2023-03-06T20:03:35.731Z,15.00
2023-03-06T20:06:06.215Z,19.00
2023-03-06T20:08:32.950Z,21.77
2023-03-06T20:10:59.706Z,16.15
2023-03-06T20:13:26.427Z,17.30
2023-03-06T20:15:53.281Z,23.67
2023-03-06T20:18:20.056Z,19.38
2023-03-06T20:20:57.555Z,17.05
2023-03-06T20:23:24.495Z,19.38
2023-03-06T20:25:51.222Z,19.33
2023-03-06T20:28:17.935Z,16.67
2023-03-06T20:30:44.699Z,17.85
2023-03-06T20:33:11.412Z,17.90
2023-03-06T20:35:42.489Z,17.25
2023-03-06T20:38:10.013Z,21.15
2023-03-06T20:40:38.355Z,23.97
2023-03-06T20:43:05.325Z,21.10
2023-03-06T20:45:32.118Z,21.58
2023-03-06T20:47:58.812Z,17.40
2023-03-06T20:50:26.255Z,19.88
2023-03-06T20:52:54.545Z,20.67
2023-03-06T20:55:21.384Z,20.70
2023-03-06T20:57:51.719Z,18.98
2023-03-06T21:00:19.048Z,18.25
2023-03-06T21:02:45.799Z,19.58
2023-03-06T21:05:12.859Z,19.27
2023-03-06T21:07:39.647Z,18.85
2023-03-06T21:10:07.212Z,22.23
2023-03-06T21:12:33.987Z,22.33
2023-03-06T21:15:00.821Z,20.88
2023-03-06T21:17:28.166Z,18.50
2023-03-06T21:19:54.894Z,22.38
2023-03-06T21:22:21.668Z,21.30
2023-03-06T21:24:48.400Z,18.25
2023-03-06T21:27:15.116Z,20.75
2023-03-06T21:29:41.878Z,22.40
2023-03-06T21:32:08.643Z,24.55
2023-03-06T21:34:35.411Z,28.52
2023-03-06T21:37:02.199Z,27.45
2023-03-06T21:39:28.946Z,27.98
2023-03-06T21:41:55.698Z,25.83
2023-03-06T21:44:22.436Z,26.50
2023-03-06T21:46:49.142Z,24.52
2023-03-06T21:49:15.875Z,23.13
2023-03-06T21:51:42.535Z,26.67
2023-03-06T21:54:09.757Z,21.93
2023-03-06T21:56:36.754Z,26.02
2023-03-06T21:59:03.451Z,24.92
2023-03-06T22:01:30.366Z,26.52
2023-03-06T22:03:58.695Z,26.33
2023-03-06T22:06:26.992Z,29.37
2023-03-06T22:08:57.813Z,29.08
2023-03-06T22:11:25.550Z,28.88
2023-03-06T22:13:55.706Z,26.48
2023-03-06T22:16:22.454Z,28.15
2023-03-06T22:18:50.866Z,26.97
2023-03-06T22:21:20.348Z,29.88
2023-03-06T22:23:57.198Z,29.98
2023-03-06T22:26:24.405Z,27.52
2023-03-06T22:28:51.182Z,24.00
2023-03-06T22:31:20.465Z,26.37
2023-03-06T22:33:51.196Z,27.20
2023-03-06T22:36:18.457Z,29.80
2023-03-06T22:38:46.144Z,24.67
2023-03-06T22:41:14.558Z,28.17
2023-03-06T22:43:41.679Z,25.17
2023-03-06T22:46:10.855Z,27.70
2023-03-06T22:48:37.636Z,24.77
2023-03-06T22:51:12.087Z,28.23
2023-03-06T22:53:39.146Z,25.08
2023-03-06T22:56:10.843Z,28.37
2023-03-06T22:58:37.704Z,30.25
2023-03-06T23:01:12.855Z,29.73
2023-03-06T23:03:41.928Z,29.10
2023-03-06T23:06:30.288Z,33.50
2023-03-06T23:09:08.716Z,31.13
2023-03-06T23:11:35.462Z,22.92
2023-03-06T23:14:03.296Z,27.15
2023-03-06T23:16:30.667Z,26.58
2023-03-06T23:18:57.487Z,26.48
2023-03-06T23:21:24.584Z,28.47
2023-03-06T23:23:53.839Z,27.95
2023-03-06T23:26:22.835Z,28.17
2023-03-06T23:28:49.629Z,34.08
2023-03-06T23:31:18.390Z,27.95
2023-03-06T23:33:45.139Z,26.87
2023-03-06T23:36:14.018Z,29.85
2023-03-06T23:38:41.168Z,31.42
2023-03-06T23:41:11.343Z,27.02
2023-03-06T23:43:38.226Z,25.63
2023-03-06T23:46:06.123Z,29.33
2023-03-06T23:48:33.826Z,24.55
2023-03-06T23:51:00.638Z,23.17
2023-03-06T23:53:27.377Z,27.10
2023-03-06T23:55:54.353Z,30.00
2023-03-06T23:58:21.059Z,30.20
